Forside
METAR-TAF:

METAR-TAF

Lufthavne :

Beirut, Libanon

Breddekreds: 33-49N, længdekreds: 035-29E, højde: 29 m

Aktuelle vejr

Denne rapport blev lavet for 5 minutter siden, kl. 13:00 UTC
Vind 8 kt fra vest
Temperatur 28°C
Fugtighed 62%
Tryk 1015 hPa
Sigt 10 km eller mere
Nogle få skyer i en højde af 2600 ft

METAR: OLBA 221300Z 26008KT 9999 FEW026 28/20 Q1015 NOSIG

Tid: 16:05 (13:05 UTC)

Vejrudsigter

Denne rapport blev lavet for 3 timer og 5 minutter siden, kl. 10:00 UTC
Foreløbig gælder fra 22 på 12 UTC til 23 på 18 UTC
Vind 10 kt fra sydsydvest
Sigt: 8000 m
Spredte skyer i en højde af 2600 ft
Midlertidig
fra 22 på 18 UTC til 23 på 06 UTC
Sigt: 5000 m
dis
ændring
fra 23 på 15 UTC til 23 på 18 UTC
Vind 10 kt fra syd

TAF: OLBA 221000Z 2212/2318 20010KT 8000 SCT026 TEMPO 2218/2306 5000 BR BECMG 2315/2318 17010KT

Vejrobservationer og prognoser fra mere end 4000 lufthavne (METAR og TAF).

De gule og røde prikker repræsenterer de meteorologiske stationer.

Flyt musen over at se navnet på stationen.

Så klik over at se vejr observationer og prognoser.

At skifte det kort: Klik på de grønne knapper med et sort kors for at zoome ind; på den grønne knap med en bindestreg for at zoome ud; eller på de grønne pile for tilstødende kort.


METAR-TAF: